EZY17VN EGKK-LPPT
Flight info
| Callsign | EZY17VN |
|---|---|
| Flight time | 2h 24m |
| Altitude | 37000 |
| Route | IMVUR N63 SAM M195 LORKU DCT BALDA DCT ABUPI DCT XAMAX |
| Aircraft | A320/M-SDE3FGHIRWY/LB1 |
Departure
| Time | 2026-05-06 21:21 |
|---|---|
| Airport | London Gatwick Airport (EGKK) |
Arrival
| Time | 2026-05-06 23:45 |
|---|---|
| Airport | Lisbon Humberto Delgado Airport (LPPT) |
| Time | Latitude | Longitude | Altitude | Speed | Heading |
|---|---|---|---|---|---|
| 2026-05-06 20:31 | 51.15641 | -0.17854 | 205 ft | 0 kts | 168° |
| 2026-05-06 21:04 | 51.15657 | -0.17859 | 215 ft | 4 kts | 171° |
| 2026-05-06 21:04 | 51.15684 | -0.17863 | 210 ft | 4 kts | 182° |
| 2026-05-06 21:04 | 51.15709 | -0.17855 | 217 ft | 4 kts | 218° |
| 2026-05-06 21:04 | 51.15718 | -0.17839 | 205 ft | 0 kts | 255° |
| 2026-05-06 21:11 | 51.15717 | -0.17845 | 210 ft | 4 kts | 255° |
| 2026-05-06 21:11 | 51.15700 | -0.17961 | 209 ft | 11 kts | 260° |
| 2026-05-06 21:11 | 51.15685 | -0.18077 | 209 ft | 10 kts | 257° |
| 2026-05-06 21:12 | 51.15670 | -0.18179 | 209 ft | 9 kts | 257° |
| 2026-05-06 21:12 | 51.15642 | -0.18235 | 209 ft | 6 kts | 201° |
| 2026-05-06 21:12 | 51.15606 | -0.18257 | 213 ft | 5 kts | 204° |
| 2026-05-06 21:12 | 51.15578 | -0.18279 | 212 ft | 4 kts | 208° |
| 2026-05-06 21:13 | 51.15551 | -0.18306 | 209 ft | 7 kts | 212° |
| 2026-05-06 21:13 | 51.15487 | -0.18315 | 205 ft | 10 kts | 169° |
| 2026-05-06 21:13 | 51.15426 | -0.18293 | 211 ft | 8 kts | 167° |
| 2026-05-06 21:13 | 51.15373 | -0.18275 | 208 ft | 10 kts | 168° |
| 2026-05-06 21:14 | 51.15280 | -0.18244 | 211 ft | 15 kts | 167° |
| 2026-05-06 21:14 | 51.15192 | -0.18268 | 210 ft | 13 kts | 245° |
| 2026-05-06 21:14 | 51.15176 | -0.18405 | 210 ft | 12 kts | 257° |
| 2026-05-06 21:14 | 51.15165 | -0.18487 | 207 ft | 11 kts | 258° |
| 2026-05-06 21:15 | 51.15150 | -0.18598 | 205 ft | 10 kts | 258° |
| 2026-05-06 21:15 | 51.15136 | -0.18699 | 205 ft | 11 kts | 258° |
| 2026-05-06 21:15 | 51.15113 | -0.18867 | 214 ft | 16 kts | 257° |
| 2026-05-06 21:15 | 51.15091 | -0.19028 | 205 ft | 14 kts | 257° |
| 2026-05-06 21:16 | 51.15071 | -0.19169 | 211 ft | 12 kts | 257° |
| 2026-05-06 21:16 | 51.15034 | -0.19269 | 208 ft | 10 kts | 195° |
| 2026-05-06 21:16 | 51.14984 | -0.19277 | 210 ft | 6 kts | 202° |
| 2026-05-06 21:16 | 51.14948 | -0.19389 | 210 ft | 16 kts | 256° |
| 2026-05-06 21:17 | 51.14926 | -0.19558 | 213 ft | 15 kts | 259° |
| 2026-05-06 21:17 | 51.14907 | -0.19706 | 207 ft | 13 kts | 258° |
| 2026-05-06 21:17 | 51.14888 | -0.19841 | 210 ft | 14 kts | 257° |
| 2026-05-06 21:17 | 51.14856 | -0.20066 | 208 ft | 23 kts | 257° |
| 2026-05-06 21:18 | 51.14819 | -0.20333 | 205 ft | 26 kts | 257° |
| 2026-05-06 21:18 | 51.14782 | -0.20607 | 207 ft | 25 kts | 257° |
| 2026-05-06 21:18 | 51.14766 | -0.20719 | 208 ft | 9 kts | 257° |
| 2026-05-06 21:18 | 51.14741 | -0.20901 | 205 ft | 20 kts | 257° |
| 2026-05-06 21:19 | 51.14710 | -0.21122 | 212 ft | 21 kts | 257° |
| 2026-05-06 21:19 | 51.14686 | -0.21289 | 210 ft | 12 kts | 250° |
| 2026-05-06 21:19 | 51.14625 | -0.21333 | 207 ft | 9 kts | 175° |
| 2026-05-06 21:19 | 51.14568 | -0.21308 | 215 ft | 9 kts | 150° |
| 2026-05-06 21:20 | 51.14524 | -0.21226 | 208 ft | 10 kts | 108° |
| 2026-05-06 21:20 | 51.14523 | -0.21168 | 206 ft | 0 kts | 84° |
| 2026-05-06 21:20 | 51.14524 | -0.21148 | 206 ft | 5 kts | 82° |
| 2026-05-06 21:20 | 51.14528 | -0.21115 | 210 ft | 0 kts | 78° |
| 2026-05-06 21:21 | 51.14542 | -0.21005 | 215 ft | 40 kts | 78° |
| 2026-05-06 21:21 | 51.14656 | -0.20178 | 217 ft | 110 kts | 77° |
| 2026-05-06 21:21 | 51.14850 | -0.18697 | 257 ft | 157 kts | 78° |
| 2026-05-06 21:21 | 51.15061 | -0.17041 | 963 ft | 149 kts | 79° |
| 2026-05-06 21:22 | 51.15265 | -0.15414 | 1593 ft | 155 kts | 75° |
| 2026-05-06 21:22 | 51.15521 | -0.13618 | 1992 ft | 177 kts | 75° |
| 2026-05-06 21:22 | 51.15814 | -0.11590 | 2335 ft | 200 kts | 75° |
| 2026-05-06 21:22 | 51.16139 | -0.09319 | 2769 ft | 219 kts | 76° |
| 2026-05-06 21:23 | 51.16511 | -0.06922 | 3084 ft | 226 kts | 68° |
| 2026-05-06 21:23 | 51.17484 | -0.05060 | 3031 ft | 221 kts | 26° |
| 2026-05-06 21:23 | 51.18973 | -0.04661 | 3023 ft | 221 kts | 355° |
| 2026-05-06 21:23 | 51.20491 | -0.05077 | 3012 ft | 222 kts | 347° |
| 2026-05-06 21:24 | 51.21898 | -0.06049 | 3006 ft | 223 kts | 319° |
| 2026-05-06 21:24 | 51.22714 | -0.08134 | 3012 ft | 230 kts | 285° |
| 2026-05-06 21:24 | 51.22706 | -0.10719 | 3016 ft | 239 kts | 262° |
| 2026-05-06 21:24 | 51.22415 | -0.13333 | 3008 ft | 240 kts | 261° |
| 2026-05-06 21:25 | 51.22105 | -0.15951 | 3008 ft | 240 kts | 260° |
| 2026-05-06 21:25 | 51.21789 | -0.18568 | 3009 ft | 240 kts | 260° |
| 2026-05-06 21:25 | 51.21477 | -0.21186 | 3009 ft | 240 kts | 261° |
| 2026-05-06 21:25 | 51.21161 | -0.23856 | 3009 ft | 254 kts | 261° |
| 2026-05-06 21:26 | 51.20830 | -0.26670 | 3012 ft | 260 kts | 261° |
| 2026-05-06 21:26 | 51.20497 | -0.29504 | 3010 ft | 261 kts | 261° |
| 2026-05-06 21:26 | 51.20164 | -0.32348 | 3009 ft | 261 kts | 261° |
| 2026-05-06 21:26 | 51.19832 | -0.35197 | 3021 ft | 263 kts | 260° |
| 2026-05-06 21:27 | 51.19470 | -0.38106 | 3700 ft | 269 kts | 259° |
| 2026-05-06 21:27 | 51.19091 | -0.41011 | 3957 ft | 265 kts | 259° |
| 2026-05-06 21:27 | 51.18703 | -0.43911 | 4005 ft | 263 kts | 259° |
| 2026-05-06 21:27 | 51.18322 | -0.46762 | 4007 ft | 263 kts | 259° |
| 2026-05-06 21:28 | 51.17944 | -0.49608 | 4009 ft | 262 kts | 259° |
| 2026-05-06 21:28 | 51.17566 | -0.52449 | 4007 ft | 262 kts | 257° |
| 2026-05-06 21:28 | 51.16941 | -0.55205 | 4186 ft | 270 kts | 247° |
| 2026-05-06 21:28 | 51.16203 | -0.57942 | 5278 ft | 267 kts | 248° |
| 2026-05-06 21:29 | 51.15476 | -0.60677 | 6328 ft | 268 kts | 248° |
| 2026-05-06 21:29 | 51.14748 | -0.63425 | 7246 ft | 271 kts | 248° |
| 2026-05-06 21:29 | 51.14009 | -0.66211 | 8135 ft | 275 kts | 248° |
| 2026-05-06 21:29 | 51.13259 | -0.69037 | 9032 ft | 279 kts | 248° |
| 2026-05-06 21:30 | 51.12492 | -0.71908 | 9897 ft | 283 kts | 248° |
| 2026-05-06 21:30 | 51.11702 | -0.74855 | 10434 ft | 300 kts | 248° |
| 2026-05-06 21:30 | 51.10871 | -0.77965 | 10702 ft | 323 kts | 248° |
| 2026-05-06 21:30 | 51.09964 | -0.81359 | 11072 ft | 340 kts | 248° |
| 2026-05-06 21:31 | 51.09027 | -0.84852 | 11757 ft | 347 kts | 248° |
| 2026-05-06 21:31 | 51.08068 | -0.88398 | 12522 ft | 351 kts | 248° |
| 2026-05-06 21:31 | 51.07095 | -0.91985 | 13272 ft | 355 kts | 248° |
| 2026-05-06 21:31 | 51.06115 | -0.95608 | 13998 ft | 359 kts | 248° |
| 2026-05-06 21:32 | 51.05128 | -0.99267 | 14663 ft | 362 kts | 248° |
| 2026-05-06 21:32 | 51.03125 | -1.06684 | 16015 ft | 368 kts | 248° |
| 2026-05-06 21:32 | 51.02107 | -1.10433 | 16681 ft | 371 kts | 247° |
| 2026-05-06 21:33 | 51.01082 | -1.14204 | 17348 ft | 374 kts | 247° |
| 2026-05-06 21:33 | 51.00044 | -1.18007 | 18007 ft | 377 kts | 247° |
| 2026-05-06 21:33 | 50.98988 | -1.21844 | 18623 ft | 380 kts | 247° |
| 2026-05-06 21:33 | 50.97926 | -1.25703 | 19200 ft | 383 kts | 247° |
| 2026-05-06 21:34 | 50.96828 | -1.29574 | 19780 ft | 387 kts | 243° |
| 2026-05-06 21:34 | 50.95373 | -1.33188 | 20354 ft | 391 kts | 232° |
| 2026-05-06 21:34 | 50.93505 | -1.36339 | 20925 ft | 395 kts | 222° |
| 2026-05-06 21:34 | 50.91288 | -1.38932 | 21480 ft | 399 kts | 214° |
| 2026-05-06 21:35 | 50.88959 | -1.41348 | 22020 ft | 402 kts | 214° |
| 2026-05-06 21:35 | 50.86612 | -1.43788 | 22547 ft | 404 kts | 214° |
| 2026-05-06 21:35 | 50.84254 | -1.46239 | 23061 ft | 407 kts | 214° |
| 2026-05-06 21:35 | 50.81875 | -1.48708 | 23554 ft | 410 kts | 214° |
| 2026-05-06 21:36 | 50.79480 | -1.51191 | 23967 ft | 413 kts | 214° |
| 2026-05-06 21:36 | 50.77074 | -1.53682 | 24377 ft | 415 kts | 214° |
| 2026-05-06 21:36 | 50.74652 | -1.56192 | 24776 ft | 417 kts | 214° |
| 2026-05-06 21:36 | 50.72219 | -1.58712 | 25171 ft | 419 kts | 214° |
| 2026-05-06 21:37 | 50.69771 | -1.61242 | 25560 ft | 421 kts | 214° |
| 2026-05-06 21:37 | 50.67315 | -1.63776 | 25942 ft | 423 kts | 214° |
| 2026-05-06 21:37 | 50.64839 | -1.66321 | 26320 ft | 425 kts | 214° |
| 2026-05-06 21:37 | 50.62357 | -1.68867 | 26659 ft | 427 kts | 214° |
| 2026-05-06 21:38 | 50.59859 | -1.71426 | 27006 ft | 430 kts | 214° |
| 2026-05-06 21:38 | 50.57346 | -1.73996 | 27358 ft | 432 kts | 214° |
| 2026-05-06 21:38 | 50.54819 | -1.76581 | 27708 ft | 434 kts | 214° |
| 2026-05-06 21:38 | 50.52286 | -1.79172 | 28040 ft | 436 kts | 214° |
| 2026-05-06 21:39 | 50.49745 | -1.81772 | 28366 ft | 438 kts | 214° |
| 2026-05-06 21:39 | 50.47184 | -1.84388 | 28684 ft | 439 kts | 214° |
| 2026-05-06 21:39 | 50.44617 | -1.87001 | 28996 ft | 441 kts | 214° |
| 2026-05-06 21:39 | 50.42037 | -1.89619 | 29287 ft | 443 kts | 214° |
| 2026-05-06 21:40 | 50.39448 | -1.92244 | 29562 ft | 444 kts | 214° |
| 2026-05-06 21:40 | 50.36847 | -1.94881 | 29821 ft | 446 kts | 214° |
| 2026-05-06 21:40 | 50.34237 | -1.97527 | 30079 ft | 447 kts | 214° |
| 2026-05-06 21:40 | 50.31627 | -2.00166 | 30386 ft | 447 kts | 214° |
| 2026-05-06 21:41 | 50.29015 | -2.02796 | 30691 ft | 446 kts | 214° |
| 2026-05-06 21:41 | 50.26409 | -2.05418 | 30989 ft | 445 kts | 214° |
| 2026-05-06 21:41 | 50.23808 | -2.08036 | 31297 ft | 444 kts | 214° |
| 2026-05-06 21:41 | 50.21203 | -2.10621 | 31603 ft | 444 kts | 214° |
| 2026-05-06 21:42 | 50.18587 | -2.13173 | 31911 ft | 443 kts | 213° |
| 2026-05-06 21:42 | 50.15974 | -2.15698 | 32202 ft | 442 kts | 213° |
| 2026-05-06 21:42 | 50.13353 | -2.18221 | 32504 ft | 442 kts | 213° |
| 2026-05-06 21:42 | 50.10744 | -2.20739 | 32814 ft | 441 kts | 213° |
| 2026-05-06 21:43 | 50.08142 | -2.23259 | 33137 ft | 440 kts | 214° |
| 2026-05-06 21:43 | 50.05549 | -2.25781 | 33434 ft | 440 kts | 214° |
| 2026-05-06 21:43 | 50.02954 | -2.28299 | 33748 ft | 439 kts | 214° |
| 2026-05-06 21:43 | 50.00374 | -2.30799 | 34057 ft | 438 kts | 214° |
| 2026-05-06 21:44 | 49.97818 | -2.33269 | 34316 ft | 437 kts | 214° |
| 2026-05-06 21:44 | 49.95230 | -2.35761 | 34557 ft | 438 kts | 213° |
| 2026-05-06 21:44 | 49.92536 | -2.37969 | 34772 ft | 440 kts | 205° |
| 2026-05-06 21:44 | 49.89714 | -2.39832 | 34999 ft | 441 kts | 205° |
| 2026-05-06 21:45 | 49.86894 | -2.41699 | 35203 ft | 441 kts | 205° |
| 2026-05-06 21:45 | 49.84073 | -2.43574 | 35410 ft | 441 kts | 205° |
| 2026-05-06 21:45 | 49.81250 | -2.45452 | 35618 ft | 442 kts | 205° |
| 2026-05-06 21:45 | 49.78426 | -2.47330 | 35816 ft | 442 kts | 205° |
| 2026-05-06 21:46 | 49.75598 | -2.49208 | 36012 ft | 443 kts | 205° |
| 2026-05-06 21:46 | 49.72765 | -2.51084 | 36206 ft | 443 kts | 205° |
| 2026-05-06 21:46 | 49.69930 | -2.52956 | 36378 ft | 444 kts | 205° |
| 2026-05-06 21:46 | 49.67086 | -2.54831 | 36560 ft | 444 kts | 205° |
| 2026-05-06 21:47 | 49.64244 | -2.56704 | 36737 ft | 445 kts | 205° |
| 2026-05-06 21:47 | 49.61397 | -2.58578 | 36906 ft | 445 kts | 204° |
| 2026-05-06 21:47 | 49.58548 | -2.60454 | 37018 ft | 446 kts | 205° |
| 2026-05-06 21:47 | 49.55688 | -2.62336 | 37029 ft | 447 kts | 204° |
| 2026-05-06 21:48 | 49.49962 | -2.66086 | 37030 ft | 447 kts | 204° |
| 2026-05-06 21:48 | 49.44230 | -2.69829 | 37029 ft | 448 kts | 204° |
| 2026-05-06 21:49 | 49.38495 | -2.73565 | 37029 ft | 448 kts | 204° |
| 2026-05-06 21:49 | 49.32759 | -2.77290 | 37028 ft | 448 kts | 204° |
| 2026-05-06 21:50 | 49.27019 | -2.81001 | 37022 ft | 448 kts | 204° |
| 2026-05-06 21:50 | 49.21274 | -2.84721 | 37016 ft | 448 kts | 204° |
| 2026-05-06 21:51 | 49.15522 | -2.88443 | 37022 ft | 449 kts | 204° |
| 2026-05-06 21:51 | 49.09769 | -2.92150 | 37027 ft | 449 kts | 204° |
| 2026-05-06 21:52 | 49.04007 | -2.95841 | 37027 ft | 449 kts | 204° |
| 2026-05-06 21:52 | 48.98246 | -2.99527 | 37023 ft | 449 kts | 204° |
| 2026-05-06 21:53 | 48.92481 | -3.03212 | 37032 ft | 449 kts | 204° |
| 2026-05-06 21:53 | 48.86715 | -3.06889 | 37032 ft | 449 kts | 204° |
| 2026-05-06 21:54 | 48.80942 | -3.10552 | 37036 ft | 450 kts | 204° |
| 2026-05-06 21:54 | 48.75170 | -3.14209 | 37036 ft | 450 kts | 204° |
| 2026-05-06 21:55 | 48.69435 | -3.17833 | 37037 ft | 450 kts | 204° |
| 2026-05-06 21:55 | 48.63660 | -3.21476 | 37044 ft | 450 kts | 204° |
| 2026-05-06 21:56 | 48.57886 | -3.25120 | 37034 ft | 450 kts | 204° |
| 2026-05-06 21:56 | 48.52113 | -3.28747 | 37033 ft | 450 kts | 204° |
| 2026-05-06 21:57 | 48.46330 | -3.32360 | 37035 ft | 450 kts | 204° |
| 2026-05-06 21:57 | 48.40545 | -3.35962 | 37032 ft | 450 kts | 204° |
| 2026-05-06 21:58 | 48.35697 | -3.38982 | 37030 ft | 450 kts | 204° |
| 2026-05-06 21:58 | 48.29961 | -3.42559 | 37028 ft | 450 kts | 204° |
| 2026-05-06 21:59 | 48.24179 | -3.46146 | 37027 ft | 449 kts | 204° |
| 2026-05-06 21:59 | 48.18395 | -3.49722 | 37027 ft | 449 kts | 204° |
| 2026-05-06 22:00 | 48.12618 | -3.53286 | 37022 ft | 449 kts | 204° |
| 2026-05-06 22:00 | 48.06836 | -3.56840 | 37023 ft | 449 kts | 204° |
| 2026-05-06 22:01 | 48.01052 | -3.60391 | 37030 ft | 449 kts | 204° |
| 2026-05-06 22:01 | 47.95265 | -3.63926 | 37015 ft | 449 kts | 204° |
| 2026-05-06 22:02 | 47.89484 | -3.67457 | 37015 ft | 449 kts | 204° |
| 2026-05-06 22:02 | 47.83701 | -3.70994 | 37017 ft | 449 kts | 204° |
| 2026-05-06 22:03 | 47.77913 | -3.74516 | 37034 ft | 449 kts | 204° |
| 2026-05-06 22:03 | 47.72128 | -3.78027 | 37008 ft | 449 kts | 203° |
| 2026-05-06 22:04 | 47.66346 | -3.81520 | 37015 ft | 449 kts | 203° |
| 2026-05-06 22:04 | 47.60563 | -3.85003 | 37018 ft | 448 kts | 203° |
| 2026-05-06 22:05 | 47.54789 | -3.88489 | 37020 ft | 448 kts | 204° |
| 2026-05-06 22:05 | 47.49011 | -3.91967 | 37014 ft | 448 kts | 204° |
| 2026-05-06 22:06 | 47.43236 | -3.95433 | 37026 ft | 448 kts | 204° |
| 2026-05-06 22:06 | 47.37456 | -3.98883 | 37022 ft | 448 kts | 203° |
| 2026-05-06 22:07 | 47.31681 | -4.02322 | 37031 ft | 448 kts | 203° |
| 2026-05-06 22:07 | 47.25940 | -4.05731 | 37024 ft | 448 kts | 204° |
| 2026-05-06 22:08 | 47.20168 | -4.09163 | 37031 ft | 448 kts | 203° |
| 2026-05-06 22:08 | 47.14386 | -4.12587 | 37033 ft | 448 kts | 203° |
| 2026-05-06 22:09 | 47.08615 | -4.16001 | 37027 ft | 447 kts | 203° |
| 2026-05-06 22:09 | 47.02836 | -4.19411 | 37029 ft | 447 kts | 203° |
| 2026-05-06 22:10 | 46.97064 | -4.22810 | 37042 ft | 447 kts | 204° |
| 2026-05-06 22:10 | 46.91296 | -4.26198 | 37039 ft | 447 kts | 203° |
| 2026-05-06 22:11 | 46.85527 | -4.29582 | 37029 ft | 447 kts | 203° |
| 2026-05-06 22:11 | 46.79755 | -4.32956 | 37035 ft | 447 kts | 203° |
| 2026-05-06 22:12 | 46.73977 | -4.36320 | 37037 ft | 447 kts | 203° |
| 2026-05-06 22:12 | 46.68200 | -4.39667 | 37043 ft | 447 kts | 203° |
| 2026-05-06 22:13 | 46.62458 | -4.42992 | 37040 ft | 447 kts | 203° |
| 2026-05-06 22:13 | 46.56683 | -4.46339 | 37041 ft | 447 kts | 203° |
| 2026-05-06 22:14 | 46.50903 | -4.49687 | 37047 ft | 447 kts | 203° |
| 2026-05-06 22:14 | 46.45126 | -4.53010 | 37043 ft | 447 kts | 203° |
| 2026-05-06 22:15 | 46.39342 | -4.56329 | 37046 ft | 447 kts | 203° |
| 2026-05-06 22:15 | 46.33561 | -4.59651 | 37049 ft | 447 kts | 203° |
| 2026-05-06 22:16 | 46.27779 | -4.62965 | 37050 ft | 447 kts | 203° |
| 2026-05-06 22:16 | 46.22002 | -4.66267 | 37043 ft | 447 kts | 203° |
| 2026-05-06 22:17 | 46.16219 | -4.69560 | 37047 ft | 447 kts | 202° |
| 2026-05-06 22:17 | 46.10435 | -4.72845 | 37055 ft | 447 kts | 202° |
| 2026-05-06 22:18 | 46.04654 | -4.76130 | 37054 ft | 446 kts | 202° |
| 2026-05-06 22:18 | 45.98877 | -4.79401 | 37057 ft | 446 kts | 202° |
| 2026-05-06 22:19 | 45.93103 | -4.82659 | 37057 ft | 446 kts | 202° |
| 2026-05-06 22:19 | 45.87327 | -4.85905 | 37057 ft | 446 kts | 202° |
| 2026-05-06 22:20 | 45.81557 | -4.89145 | 37052 ft | 445 kts | 202° |
| 2026-05-06 22:20 | 45.75784 | -4.92374 | 37054 ft | 445 kts | 202° |
| 2026-05-06 22:21 | 45.70017 | -4.95606 | 37055 ft | 445 kts | 202° |
| 2026-05-06 22:21 | 45.64246 | -4.98840 | 37048 ft | 445 kts | 202° |
| 2026-05-06 22:22 | 45.58514 | -5.02039 | 37053 ft | 445 kts | 202° |
| 2026-05-06 22:22 | 45.52749 | -5.05237 | 37055 ft | 445 kts | 202° |
| 2026-05-06 22:23 | 45.46975 | -5.08432 | 37059 ft | 445 kts | 202° |
| 2026-05-06 22:23 | 45.41204 | -5.11609 | 37053 ft | 444 kts | 202° |
| 2026-05-06 22:24 | 45.35439 | -5.14793 | 37060 ft | 444 kts | 202° |
| 2026-05-06 22:24 | 45.29685 | -5.17978 | 37060 ft | 444 kts | 202° |
| 2026-05-06 22:25 | 45.23926 | -5.21153 | 37048 ft | 444 kts | 202° |
| 2026-05-06 22:25 | 45.18161 | -5.24305 | 37053 ft | 444 kts | 202° |
| 2026-05-06 22:26 | 45.12410 | -5.27444 | 37053 ft | 443 kts | 202° |
| 2026-05-06 22:26 | 45.06649 | -5.30595 | 37047 ft | 443 kts | 202° |
| 2026-05-06 22:27 | 45.00895 | -5.33729 | 37046 ft | 443 kts | 202° |
| 2026-05-06 22:27 | 44.95144 | -5.36849 | 37053 ft | 443 kts | 202° |
| 2026-05-06 22:28 | 44.89391 | -5.39968 | 37056 ft | 443 kts | 202° |
| 2026-05-06 22:28 | 44.83642 | -5.43079 | 37040 ft | 442 kts | 202° |
| 2026-05-06 22:29 | 44.77902 | -5.46191 | 37048 ft | 442 kts | 202° |
| 2026-05-06 22:29 | 44.72166 | -5.49300 | 37051 ft | 442 kts | 202° |
| 2026-05-06 22:30 | 44.66430 | -5.52383 | 37047 ft | 441 kts | 202° |
| 2026-05-06 22:30 | 44.60687 | -5.55462 | 37048 ft | 441 kts | 202° |
| 2026-05-06 22:31 | 44.55038 | -5.58789 | 37042 ft | 441 kts | 205° |
| 2026-05-06 22:31 | 44.49459 | -5.62358 | 37041 ft | 441 kts | 206° |
| 2026-05-06 22:32 | 44.43872 | -5.65895 | 37036 ft | 440 kts | 205° |
| 2026-05-06 22:32 | 44.38267 | -5.69348 | 37040 ft | 440 kts | 205° |
| 2026-05-06 22:33 | 44.32653 | -5.72772 | 37043 ft | 440 kts | 205° |
| 2026-05-06 22:33 | 44.27043 | -5.76194 | 37036 ft | 440 kts | 205° |
| 2026-05-06 22:34 | 44.21444 | -5.79618 | 37045 ft | 440 kts | 205° |
| 2026-05-06 22:34 | 44.15841 | -5.83040 | 37036 ft | 439 kts | 205° |
| 2026-05-06 22:35 | 44.10242 | -5.86452 | 37041 ft | 439 kts | 205° |
| 2026-05-06 22:35 | 44.04646 | -5.89849 | 37039 ft | 439 kts | 205° |
| 2026-05-06 22:36 | 43.99051 | -5.93238 | 37035 ft | 439 kts | 205° |
| 2026-05-06 22:36 | 43.93464 | -5.96636 | 37033 ft | 438 kts | 205° |
| 2026-05-06 22:37 | 43.87872 | -6.00023 | 37033 ft | 438 kts | 205° |
| 2026-05-06 22:37 | 43.82281 | -6.03392 | 37028 ft | 438 kts | 205° |
| 2026-05-06 22:38 | 43.76686 | -6.06739 | 37031 ft | 438 kts | 205° |
| 2026-05-06 22:38 | 43.71100 | -6.10083 | 37035 ft | 438 kts | 205° |
| 2026-05-06 22:39 | 43.65547 | -6.13412 | 37031 ft | 438 kts | 205° |
| 2026-05-06 22:39 | 43.59957 | -6.16764 | 37033 ft | 438 kts | 205° |
| 2026-05-06 22:40 | 43.54364 | -6.20106 | 37046 ft | 438 kts | 205° |
| 2026-05-06 22:40 | 43.48772 | -6.23435 | 37045 ft | 438 kts | 205° |
| 2026-05-06 22:41 | 43.40387 | -6.28406 | 37041 ft | 437 kts | 205° |
| 2026-05-06 22:42 | 43.34804 | -6.31712 | 37039 ft | 437 kts | 205° |
| 2026-05-06 22:42 | 43.29221 | -6.35005 | 37039 ft | 436 kts | 205° |
| 2026-05-06 22:43 | 43.23638 | -6.38297 | 37032 ft | 436 kts | 205° |
| 2026-05-06 22:43 | 43.18070 | -6.41586 | 37039 ft | 436 kts | 205° |
| 2026-05-06 22:44 | 43.12506 | -6.44862 | 37035 ft | 435 kts | 205° |
| 2026-05-06 22:44 | 43.07884 | -6.47576 | 37038 ft | 435 kts | 204° |
| 2026-05-06 22:45 | 43.02312 | -6.50825 | 37029 ft | 435 kts | 204° |
| 2026-05-06 22:45 | 42.96739 | -6.54078 | 37022 ft | 435 kts | 204° |
| 2026-05-06 22:46 | 42.91181 | -6.57321 | 37020 ft | 435 kts | 204° |
| 2026-05-06 22:46 | 42.85618 | -6.60561 | 37022 ft | 435 kts | 204° |
| 2026-05-06 22:47 | 42.80059 | -6.63798 | 37006 ft | 434 kts | 204° |
| 2026-05-06 22:47 | 42.74504 | -6.67017 | 37011 ft | 434 kts | 204° |
| 2026-05-06 22:48 | 42.68953 | -6.70226 | 37018 ft | 434 kts | 204° |
| 2026-05-06 22:48 | 42.63405 | -6.73435 | 37015 ft | 433 kts | 204° |
| 2026-05-06 22:49 | 42.57854 | -6.76640 | 37010 ft | 433 kts | 204° |
| 2026-05-06 22:49 | 42.52309 | -6.79829 | 37012 ft | 433 kts | 204° |
| 2026-05-06 22:50 | 42.46758 | -6.83014 | 37004 ft | 433 kts | 204° |
| 2026-05-06 22:50 | 42.41208 | -6.86192 | 37013 ft | 433 kts | 204° |
| 2026-05-06 22:51 | 42.35650 | -6.89371 | 36996 ft | 434 kts | 204° |
| 2026-05-06 22:51 | 42.30090 | -6.92542 | 36995 ft | 434 kts | 204° |
| 2026-05-06 22:52 | 42.24520 | -6.95714 | 36997 ft | 434 kts | 204° |
| 2026-05-06 22:52 | 42.18951 | -6.98885 | 36988 ft | 435 kts | 204° |
| 2026-05-06 22:53 | 42.13375 | -7.02045 | 36991 ft | 434 kts | 204° |
| 2026-05-06 22:53 | 42.07807 | -7.05204 | 36996 ft | 434 kts | 204° |
| 2026-05-06 22:54 | 42.02237 | -7.08354 | 36989 ft | 434 kts | 204° |
| 2026-05-06 22:54 | 41.96673 | -7.11497 | 36977 ft | 434 kts | 204° |
| 2026-05-06 22:55 | 41.91106 | -7.14631 | 36986 ft | 433 kts | 204° |
| 2026-05-06 22:55 | 41.85547 | -7.17755 | 36979 ft | 433 kts | 204° |
| 2026-05-06 22:56 | 41.80024 | -7.20858 | 36975 ft | 433 kts | 204° |
| 2026-05-06 22:56 | 41.74502 | -7.24087 | 36957 ft | 432 kts | 210° |
| 2026-05-06 22:57 | 41.69300 | -7.28117 | 36955 ft | 433 kts | 211° |
| 2026-05-06 22:57 | 41.64059 | -7.32201 | 36959 ft | 433 kts | 211° |
| 2026-05-06 22:58 | 41.58880 | -7.36225 | 36958 ft | 433 kts | 211° |
| 2026-05-06 22:58 | 41.53663 | -7.40257 | 36953 ft | 433 kts | 211° |
| 2026-05-06 22:59 | 41.48407 | -7.44307 | 36963 ft | 433 kts | 211° |
| 2026-05-06 22:59 | 41.43227 | -7.48299 | 36967 ft | 433 kts | 211° |
| 2026-05-06 23:00 | 41.37982 | -7.52339 | 36970 ft | 432 kts | 211° |
| 2026-05-06 23:00 | 41.32772 | -7.56341 | 36968 ft | 432 kts | 211° |
| 2026-05-06 23:01 | 41.27599 | -7.60309 | 36971 ft | 432 kts | 211° |
| 2026-05-06 23:01 | 41.22386 | -7.64312 | 36956 ft | 433 kts | 211° |
| 2026-05-06 23:02 | 41.17157 | -7.68296 | 36951 ft | 434 kts | 211° |
| 2026-05-06 23:02 | 41.11917 | -7.72278 | 36952 ft | 434 kts | 211° |
| 2026-05-06 23:03 | 41.06683 | -7.76273 | 36944 ft | 434 kts | 211° |
| 2026-05-06 23:03 | 41.01441 | -7.80259 | 36950 ft | 434 kts | 211° |
| 2026-05-06 23:04 | 40.96199 | -7.84232 | 36960 ft | 435 kts | 211° |
| 2026-05-06 23:04 | 40.90949 | -7.88199 | 36960 ft | 435 kts | 211° |
| 2026-05-06 23:05 | 40.85697 | -7.92163 | 36952 ft | 434 kts | 211° |
| 2026-05-06 23:05 | 40.80446 | -7.96127 | 36960 ft | 434 kts | 211° |
| 2026-05-06 23:06 | 40.75203 | -8.00079 | 36961 ft | 434 kts | 211° |
| 2026-05-06 23:06 | 40.69959 | -8.04024 | 36962 ft | 434 kts | 211° |
| 2026-05-06 23:07 | 40.64714 | -8.07964 | 36969 ft | 434 kts | 211° |
| 2026-05-06 23:07 | 40.59469 | -8.11891 | 36958 ft | 434 kts | 211° |
| 2026-05-06 23:08 | 40.54220 | -8.15810 | 36965 ft | 433 kts | 211° |
| 2026-05-06 23:08 | 40.48979 | -8.19714 | 36965 ft | 433 kts | 211° |
| 2026-05-06 23:09 | 40.43732 | -8.23606 | 36971 ft | 433 kts | 211° |
| 2026-05-06 23:09 | 40.38492 | -8.27499 | 36725 ft | 432 kts | 211° |
| 2026-05-06 23:09 | 40.35877 | -8.29440 | 36468 ft | 431 kts | 211° |
| 2026-05-06 23:10 | 40.33273 | -8.31368 | 36209 ft | 430 kts | 211° |
| 2026-05-06 23:10 | 40.30668 | -8.33296 | 35977 ft | 429 kts | 211° |
| 2026-05-06 23:10 | 40.28068 | -8.35217 | 35734 ft | 430 kts | 211° |
| 2026-05-06 23:10 | 40.25457 | -8.37143 | 35490 ft | 432 kts | 211° |
| 2026-05-06 23:11 | 40.22842 | -8.39074 | 34898 ft | 433 kts | 210° |
| 2026-05-06 23:11 | 40.20210 | -8.41021 | 34034 ft | 434 kts | 210° |
| 2026-05-06 23:11 | 40.17579 | -8.42966 | 33068 ft | 435 kts | 210° |
| 2026-05-06 23:11 | 40.14950 | -8.44910 | 32128 ft | 434 kts | 210° |
| 2026-05-06 23:12 | 40.12319 | -8.46851 | 31122 ft | 435 kts | 210° |
| 2026-05-06 23:12 | 40.09692 | -8.48785 | 30122 ft | 435 kts | 210° |
| 2026-05-06 23:12 | 40.07035 | -8.50729 | 28912 ft | 437 kts | 208° |
| 2026-05-06 23:12 | 40.04263 | -8.52222 | 28503 ft | 424 kts | 198° |
| 2026-05-06 23:13 | 40.01438 | -8.53048 | 28242 ft | 410 kts | 188° |
| 2026-05-06 23:13 | 39.98622 | -8.53234 | 27967 ft | 404 kts | 179° |
| 2026-05-06 23:13 | 39.95824 | -8.53015 | 27697 ft | 401 kts | 178° |
| 2026-05-06 23:13 | 39.93053 | -8.52783 | 27441 ft | 398 kts | 178° |
| 2026-05-06 23:14 | 39.90291 | -8.52552 | 27093 ft | 396 kts | 178° |
| 2026-05-06 23:14 | 39.87554 | -8.52323 | 26708 ft | 393 kts | 178° |
| 2026-05-06 23:14 | 39.84831 | -8.52097 | 26316 ft | 391 kts | 178° |
| 2026-05-06 23:14 | 39.82123 | -8.51871 | 25948 ft | 385 kts | 178° |
| 2026-05-06 23:15 | 39.79499 | -8.51653 | 25814 ft | 371 kts | 179° |
| 2026-05-06 23:15 | 39.76980 | -8.51798 | 25683 ft | 356 kts | 191° |
| 2026-05-06 23:15 | 39.74626 | -8.52591 | 25403 ft | 346 kts | 202° |
| 2026-05-06 23:15 | 39.72499 | -8.53976 | 25218 ft | 341 kts | 211° |
| 2026-05-06 23:16 | 39.70479 | -8.55579 | 24944 ft | 339 kts | 211° |
| 2026-05-06 23:16 | 39.68471 | -8.57164 | 24662 ft | 337 kts | 211° |
| 2026-05-06 23:16 | 39.66467 | -8.58743 | 24378 ft | 336 kts | 211° |
| 2026-05-06 23:16 | 39.64470 | -8.60313 | 24094 ft | 335 kts | 211° |
| 2026-05-06 23:17 | 39.62485 | -8.61870 | 23813 ft | 334 kts | 211° |
| 2026-05-06 23:17 | 39.60501 | -8.63427 | 23525 ft | 333 kts | 211° |
| 2026-05-06 23:17 | 39.58522 | -8.64979 | 23215 ft | 332 kts | 211° |
| 2026-05-06 23:17 | 39.56555 | -8.66519 | 22928 ft | 331 kts | 211° |
| 2026-05-06 23:18 | 39.54583 | -8.68062 | 22652 ft | 330 kts | 211° |
| 2026-05-06 23:18 | 39.52651 | -8.69577 | 22377 ft | 328 kts | 211° |
| 2026-05-06 23:18 | 39.50677 | -8.71123 | 22094 ft | 327 kts | 211° |
| 2026-05-06 23:18 | 39.48756 | -8.72627 | 21823 ft | 326 kts | 211° |
| 2026-05-06 23:19 | 39.46789 | -8.74163 | 21544 ft | 326 kts | 212° |
| 2026-05-06 23:19 | 39.44849 | -8.75677 | 21269 ft | 326 kts | 212° |
| 2026-05-06 23:19 | 39.42913 | -8.77191 | 20989 ft | 325 kts | 212° |
| 2026-05-06 23:19 | 39.40989 | -8.78702 | 20714 ft | 323 kts | 213° |
| 2026-05-06 23:20 | 39.39237 | -8.80505 | 20452 ft | 321 kts | 225° |
| 2026-05-06 23:20 | 39.37765 | -8.82630 | 20179 ft | 321 kts | 229° |
| 2026-05-06 23:20 | 39.36279 | -8.84824 | 19905 ft | 320 kts | 229° |
| 2026-05-06 23:20 | 39.34813 | -8.86973 | 19637 ft | 318 kts | 229° |
| 2026-05-06 23:21 | 39.33352 | -8.89111 | 19369 ft | 317 kts | 229° |
| 2026-05-06 23:21 | 39.31893 | -8.91250 | 19107 ft | 317 kts | 229° |
| 2026-05-06 23:21 | 39.30443 | -8.93377 | 18828 ft | 315 kts | 229° |
| 2026-05-06 23:21 | 39.29015 | -8.95469 | 18571 ft | 314 kts | 229° |
| 2026-05-06 23:22 | 39.27554 | -8.97606 | 18300 ft | 313 kts | 229° |
| 2026-05-06 23:22 | 39.26114 | -8.99711 | 18020 ft | 313 kts | 229° |
| 2026-05-06 23:22 | 39.24697 | -9.01783 | 17754 ft | 311 kts | 229° |
| 2026-05-06 23:22 | 39.23251 | -9.03899 | 17489 ft | 309 kts | 229° |
| 2026-05-06 23:23 | 39.21848 | -9.05950 | 17228 ft | 310 kts | 229° |
| 2026-05-06 23:23 | 39.20405 | -9.08059 | 16969 ft | 309 kts | 229° |
| 2026-05-06 23:23 | 39.18983 | -9.10139 | 16713 ft | 309 kts | 229° |
| 2026-05-06 23:23 | 39.17567 | -9.12205 | 16466 ft | 307 kts | 229° |
| 2026-05-06 23:24 | 39.16154 | -9.14264 | 16227 ft | 306 kts | 229° |
| 2026-05-06 23:24 | 39.14747 | -9.16315 | 15969 ft | 306 kts | 229° |
| 2026-05-06 23:24 | 39.13339 | -9.18360 | 15709 ft | 304 kts | 229° |
| 2026-05-06 23:24 | 39.11935 | -9.20399 | 15453 ft | 303 kts | 229° |
| 2026-05-06 23:25 | 39.10544 | -9.22421 | 15199 ft | 302 kts | 229° |
| 2026-05-06 23:25 | 39.09172 | -9.24418 | 14951 ft | 301 kts | 229° |
| 2026-05-06 23:25 | 39.07783 | -9.26436 | 14697 ft | 301 kts | 229° |
| 2026-05-06 23:25 | 39.06399 | -9.28444 | 14447 ft | 299 kts | 229° |
| 2026-05-06 23:26 | 39.05024 | -9.30438 | 14190 ft | 297 kts | 229° |
| 2026-05-06 23:26 | 39.03652 | -9.32425 | 13938 ft | 297 kts | 229° |
| 2026-05-06 23:26 | 39.02277 | -9.34414 | 13683 ft | 297 kts | 229° |
| 2026-05-06 23:26 | 39.00913 | -9.36391 | 13418 ft | 295 kts | 229° |
| 2026-05-06 23:27 | 38.99551 | -9.38356 | 13172 ft | 293 kts | 229° |
| 2026-05-06 23:27 | 38.98200 | -9.40305 | 12926 ft | 293 kts | 229° |
| 2026-05-06 23:27 | 38.96848 | -9.42254 | 12672 ft | 292 kts | 229° |
| 2026-05-06 23:27 | 38.95932 | -9.43576 | 12511 ft | 292 kts | 228° |
| 2026-05-06 23:28 | 38.94585 | -9.45518 | 12267 ft | 291 kts | 229° |
| 2026-05-06 23:28 | 38.93242 | -9.47451 | 12022 ft | 290 kts | 229° |
| 2026-05-06 23:28 | 38.91905 | -9.49379 | 11780 ft | 289 kts | 229° |
| 2026-05-06 23:28 | 38.90580 | -9.51289 | 11596 ft | 281 kts | 229° |
| 2026-05-06 23:29 | 38.89251 | -9.53072 | 11459 ft | 272 kts | 220° |
| 2026-05-06 23:29 | 38.87653 | -9.54296 | 11339 ft | 267 kts | 202° |
| 2026-05-06 23:29 | 38.85850 | -9.54826 | 11166 ft | 266 kts | 184° |
| 2026-05-06 23:29 | 38.83995 | -9.54867 | 10954 ft | 267 kts | 181° |
| 2026-05-06 23:30 | 38.82143 | -9.54901 | 10735 ft | 265 kts | 182° |
| 2026-05-06 23:30 | 38.80300 | -9.54941 | 10524 ft | 265 kts | 182° |
| 2026-05-06 23:30 | 38.78460 | -9.54982 | 10299 ft | 264 kts | 181° |
| 2026-05-06 23:30 | 38.76629 | -9.55023 | 10079 ft | 262 kts | 181° |
| 2026-05-06 23:31 | 38.74809 | -9.55065 | 9859 ft | 262 kts | 181° |
| 2026-05-06 23:31 | 38.72993 | -9.55105 | 9629 ft | 260 kts | 181° |
| 2026-05-06 23:31 | 38.71190 | -9.55144 | 9402 ft | 258 kts | 181° |
| 2026-05-06 23:31 | 38.69394 | -9.55185 | 9193 ft | 258 kts | 181° |
| 2026-05-06 23:32 | 38.67600 | -9.55224 | 8979 ft | 257 kts | 181° |
| 2026-05-06 23:32 | 38.65837 | -9.55262 | 8768 ft | 257 kts | 181° |
| 2026-05-06 23:32 | 38.64053 | -9.55301 | 8558 ft | 257 kts | 181° |
| 2026-05-06 23:32 | 38.62271 | -9.55340 | 8345 ft | 255 kts | 181° |
| 2026-05-06 23:33 | 38.60491 | -9.55379 | 8161 ft | 248 kts | 181° |
| 2026-05-06 23:33 | 38.58818 | -9.55263 | 8050 ft | 243 kts | 170° |
| 2026-05-06 23:33 | 38.57169 | -9.54839 | 8006 ft | 241 kts | 169° |
| 2026-05-06 23:33 | 38.55532 | -9.54421 | 8008 ft | 241 kts | 169° |
| 2026-05-06 23:34 | 38.53887 | -9.54003 | 8006 ft | 241 kts | 169° |
| 2026-05-06 23:34 | 38.52243 | -9.53586 | 8007 ft | 240 kts | 169° |
| 2026-05-06 23:34 | 38.50597 | -9.53158 | 8000 ft | 242 kts | 165° |
| 2026-05-06 23:34 | 38.49044 | -9.52325 | 8006 ft | 244 kts | 148° |
| 2026-05-06 23:35 | 38.47633 | -9.51126 | 8005 ft | 244 kts | 147° |
| 2026-05-06 23:35 | 38.46223 | -9.49922 | 7904 ft | 242 kts | 147° |
| 2026-05-06 23:35 | 38.44829 | -9.48735 | 7559 ft | 240 kts | 146° |
| 2026-05-06 23:35 | 38.43672 | -9.47281 | 7432 ft | 230 kts | 124° |
| 2026-05-06 23:36 | 38.43125 | -9.45416 | 7267 ft | 225 kts | 99° |
| 2026-05-06 23:36 | 38.43290 | -9.43449 | 7021 ft | 227 kts | 72° |
| 2026-05-06 23:36 | 38.44165 | -9.41786 | 6706 ft | 229 kts | 43° |
| 2026-05-06 23:36 | 38.45412 | -9.40489 | 6356 ft | 232 kts | 41° |
| 2026-05-06 23:37 | 38.46670 | -9.39195 | 6019 ft | 232 kts | 41° |
| 2026-05-06 23:37 | 38.47914 | -9.37910 | 5736 ft | 229 kts | 39° |
| 2026-05-06 23:37 | 38.49147 | -9.36634 | 5433 ft | 227 kts | 39° |
| 2026-05-06 23:37 | 38.50372 | -9.35362 | 5121 ft | 225 kts | 39° |
| 2026-05-06 23:38 | 38.51579 | -9.34107 | 4865 ft | 222 kts | 38° |
| 2026-05-06 23:38 | 38.52757 | -9.32882 | 4707 ft | 214 kts | 37° |
| 2026-05-06 23:38 | 38.53893 | -9.31702 | 4589 ft | 206 kts | 38° |
| 2026-05-06 23:38 | 38.54986 | -9.30560 | 4454 ft | 199 kts | 38° |
| 2026-05-06 23:39 | 38.56045 | -9.29454 | 4265 ft | 195 kts | 37° |
| 2026-05-06 23:39 | 38.57087 | -9.28366 | 4068 ft | 192 kts | 36° |
| 2026-05-06 23:39 | 38.58098 | -9.27311 | 4014 ft | 181 kts | 36° |
| 2026-05-06 23:39 | 38.59028 | -9.26339 | 3992 ft | 164 kts | 37° |
| 2026-05-06 23:40 | 38.59862 | -9.25465 | 3977 ft | 147 kts | 36° |
| 2026-05-06 23:40 | 38.60633 | -9.24659 | 3989 ft | 141 kts | 34° |
| 2026-05-06 23:40 | 38.61394 | -9.23869 | 3994 ft | 141 kts | 33° |
| 2026-05-06 23:40 | 38.62158 | -9.23074 | 4001 ft | 142 kts | 36° |
| 2026-05-06 23:41 | 38.62925 | -9.22275 | 4002 ft | 141 kts | 36° |
| 2026-05-06 23:41 | 38.63700 | -9.21485 | 3986 ft | 138 kts | 27° |
| 2026-05-06 23:41 | 38.64542 | -9.20930 | 3749 ft | 137 kts | 21° |
| 2026-05-06 23:41 | 38.65385 | -9.20439 | 3574 ft | 131 kts | 21° |
| 2026-05-06 23:42 | 38.66243 | -9.19961 | 3064 ft | 141 kts | 20° |
| 2026-05-06 23:42 | 38.67181 | -9.19452 | 2455 ft | 149 kts | 20° |
| 2026-05-06 23:42 | 38.68105 | -9.18952 | 2206 ft | 137 kts | 19° |
| 2026-05-06 23:42 | 38.68967 | -9.18489 | 2021 ft | 130 kts | 19° |
| 2026-05-06 23:43 | 38.69782 | -9.18054 | 1853 ft | 128 kts | 19° |
| 2026-05-06 23:43 | 38.70603 | -9.17616 | 1682 ft | 125 kts | 18° |
| 2026-05-06 23:43 | 38.71415 | -9.17182 | 1504 ft | 127 kts | 20° |
| 2026-05-06 23:43 | 38.72228 | -9.16749 | 1338 ft | 125 kts | 19° |
| 2026-05-06 23:44 | 38.73035 | -9.16318 | 1158 ft | 126 kts | 20° |
| 2026-05-06 23:44 | 38.73844 | -9.15886 | 991 ft | 125 kts | 20° |
| 2026-05-06 23:44 | 38.74652 | -9.15455 | 811 ft | 126 kts | 19° |
| 2026-05-06 23:44 | 38.75462 | -9.15022 | 629 ft | 128 kts | 19° |
| 2026-05-06 23:45 | 38.76284 | -9.14583 | 465 ft | 128 kts | 18° |
| 2026-05-06 23:45 | 38.77096 | -9.14154 | 347 ft | 119 kts | 21° |
| 2026-05-06 23:45 | 38.77708 | -9.13831 | 346 ft | 70 kts | 22° |
| 2026-05-06 23:45 | 38.77993 | -9.13668 | 346 ft | 21 kts | 21° |
| 2026-05-06 23:46 | 38.78049 | -9.13639 | 350 ft | 13 kts | 23° |
| 2026-05-06 23:46 | 38.78145 | -9.13587 | 348 ft | 16 kts | 25° |
| 2026-05-06 23:46 | 38.78245 | -9.13509 | 352 ft | 18 kts | 37° |
| 2026-05-06 23:46 | 38.78344 | -9.13390 | 351 ft | 20 kts | 47° |
| 2026-05-06 23:47 | 38.78374 | -9.13334 | 346 ft | 0 kts | 71° |
| 2026-05-06 23:47 | 38.78376 | -9.13309 | 351 ft | 5 kts | 92° |
| 2026-05-06 23:48 | 38.78364 | -9.13279 | 354 ft | 3 kts | 131° |
| 2026-05-06 23:48 | 38.78351 | -9.13270 | 352 ft | 1 kts | 155° |
| 2026-05-06 23:48 | 38.78309 | -9.13272 | 350 ft | 11 kts | 195° |
| 2026-05-06 23:48 | 38.78241 | -9.13303 | 347 ft | 10 kts | 202° |
| 2026-05-06 23:49 | 38.78179 | -9.13336 | 347 ft | 9 kts | 202° |
| 2026-05-06 23:49 | 38.78119 | -9.13368 | 352 ft | 9 kts | 202° |
| 2026-05-06 23:49 | 38.78063 | -9.13398 | 350 ft | 8 kts | 202° |
| 2026-05-06 23:49 | 38.78012 | -9.13425 | 352 ft | 8 kts | 202° |
| 2026-05-06 23:50 | 38.77965 | -9.13431 | 351 ft | 7 kts | 160° |
| 2026-05-06 23:50 | 38.77895 | -9.13384 | 352 ft | 5 kts | 161° |
| 2026-05-06 23:50 | 38.77863 | -9.13373 | 347 ft | 4 kts | 166° |
| 2026-05-06 23:51 | 38.77833 | -9.13343 | 351 ft | 10 kts | 124° |
| 2026-05-06 23:51 | 38.77832 | -9.13265 | 352 ft | 9 kts | 77° |
| 2026-05-06 23:51 | 38.77865 | -9.13216 | 352 ft | 7 kts | 44° |
| 2026-05-06 23:51 | 38.77868 | -9.13212 | 347 ft | 0 kts | 45° |
| 2026-05-06 23:52 | 38.77427 | -9.13152 | 347 ft | 0 kts | 78° |